sensor_id;sensor_type;location;lat;lon;timestamp;P1;durP1;ratioP1;P2;durP2;ratioP2
32850;SDS011;19202;48.992;8.390;2022-11-20T00:04:20;13.27;;;7.20;;
32850;SDS011;19202;48.992;8.390;2022-11-20T00:09:58;12.20;;;6.93;;
32850;SDS011;19202;48.992;8.390;2022-11-20T00:15:36;13.25;;;7.15;;
32850;SDS011;19202;48.992;8.390;2022-11-20T00:21:18;10.25;;;6.38;;
32850;SDS011;19202;48.992;8.390;2022-11-20T00:27:01;12.93;;;6.80;;
32850;SDS011;19202;48.992;8.390;2022-11-20T00:32:39;13.27;;;6.50;;
32850;SDS011;19202;48.992;8.390;2022-11-20T00:38:17;11.98;;;6.40;;
32850;SDS011;19202;48.992;8.390;2022-11-20T00:43:55;11.00;;;6.15;;
32850;SDS011;19202;48.992;8.390;2022-11-20T00:49:34;13.25;;;6.95;;
32850;SDS011;19202;48.992;8.390;2022-11-20T00:55:11;13.10;;;6.78;;
32850;SDS011;19202;48.992;8.390;2022-11-20T01:00:49;10.82;;;6.30;;
32850;SDS011;19202;48.992;8.390;2022-11-20T01:06:29;11.68;;;6.53;;
32850;SDS011;19202;48.992;8.390;2022-11-20T01:12:09;12.82;;;7.15;;
32850;SDS011;19202;48.992;8.390;2022-11-20T01:17:47;12.43;;;7.22;;
32850;SDS011;19202;48.992;8.390;2022-11-20T01:23:25;11.55;;;6.32;;
32850;SDS011;19202;48.992;8.390;2022-11-20T01:29:03;11.38;;;6.10;;
32850;SDS011;19202;48.992;8.390;2022-11-20T01:34:41;12.98;;;6.40;;
32850;SDS011;19202;48.992;8.390;2022-11-20T01:40:19;12.05;;;6.68;;
32850;SDS011;19202;48.992;8.390;2022-11-20T01:45:59;10.95;;;6.25;;
32850;SDS011;19202;48.992;8.390;2022-11-20T01:51:54;13.02;;;5.97;;
32850;SDS011;19202;48.992;8.390;2022-11-20T01:57:36;11.38;;;5.95;;
32850;SDS011;19202;48.992;8.390;2022-11-20T02:03:16;10.43;;;5.90;;
32850;SDS011;19202;48.992;8.390;2022-11-20T02:08:56;11.18;;;5.70;;
32850;SDS011;19202;48.992;8.390;2022-11-20T02:14:34;9.43;;;5.60;;
32850;SDS011;19202;48.992;8.390;2022-11-20T02:20:12;10.48;;;5.32;;
32850;SDS011;19202;48.992;8.390;2022-11-20T02:25:50;10.63;;;5.90;;
32850;SDS011;19202;48.992;8.390;2022-11-20T02:31:34;7.50;;;4.57;;
32850;SDS011;19202;48.992;8.390;2022-11-20T02:37:15;8.88;;;4.68;;
32850;SDS011;19202;48.992;8.390;2022-11-20T02:42:54;12.63;;;5.13;;
32850;SDS011;19202;48.992;8.390;2022-11-20T02:48:33;9.02;;;4.65;;
32850;SDS011;19202;48.992;8.390;2022-11-20T02:54:11;8.85;;;4.60;;
32850;SDS011;19202;48.992;8.390;2022-11-20T02:59:49;12.95;;;5.07;;
32850;SDS011;19202;48.992;8.390;2022-11-20T03:05:27;9.30;;;4.72;;
32850;SDS011;19202;48.992;8.390;2022-11-20T03:11:06;10.75;;;4.85;;
32850;SDS011;19202;48.992;8.390;2022-11-20T03:16:44;8.63;;;4.80;;
32850;SDS011;19202;48.992;8.390;2022-11-20T03:22:22;7.95;;;4.47;;
32850;SDS011;19202;48.992;8.390;2022-11-20T03:28:01;6.63;;;4.35;;
32850;SDS011;19202;48.992;8.390;2022-11-20T03:33:40;7.80;;;4.30;;
32850;SDS011;19202;48.992;8.390;2022-11-20T03:39:18;6.88;;;4.22;;
32850;SDS011;19202;48.992;8.390;2022-11-20T03:44:56;7.47;;;4.22;;
32850;SDS011;19202;48.992;8.390;2022-11-20T03:50:34;14.45;;;4.10;;
32850;SDS011;19202;48.992;8.390;2022-11-20T03:56:13;9.68;;;4.03;;
32850;SDS011;19202;48.992;8.390;2022-11-20T04:01:52;5.82;;;3.92;;
32850;SDS011;19202;48.992;8.390;2022-11-20T04:07:30;5.43;;;3.45;;
32850;SDS011;19202;48.992;8.390;2022-11-20T04:13:09;8.38;;;4.10;;
32850;SDS011;19202;48.992;8.390;2022-11-20T04:18:47;7.32;;;4.38;;
32850;SDS011;19202;48.992;8.390;2022-11-20T04:24:28;7.93;;;3.90;;
32850;SDS011;19202;48.992;8.390;2022-11-20T04:30:06;6.00;;;3.70;;
32850;SDS011;19202;48.992;8.390;2022-11-20T04:35:44;10.35;;;4.32;;
32850;SDS011;19202;48.992;8.390;2022-11-20T04:41:25;7.53;;;3.40;;
32850;SDS011;19202;48.992;8.390;2022-11-20T04:47:08;11.38;;;4.40;;
32850;SDS011;19202;48.992;8.390;2022-11-20T04:52:46;6.18;;;4.20;;
32850;SDS011;19202;48.992;8.390;2022-11-20T04:58:24;6.80;;;3.58;;
32850;SDS011;19202;48.992;8.390;2022-11-20T05:04:01;8.25;;;3.85;;
32850;SDS011;19202;48.992;8.390;2022-11-20T05:09:39;8.52;;;3.92;;
32850;SDS011;19202;48.992;8.390;2022-11-20T05:15:17;5.40;;;3.33;;
32850;SDS011;19202;48.992;8.390;2022-11-20T05:20:56;5.47;;;3.30;;
32850;SDS011;19202;48.992;8.390;2022-11-20T05:26:34;6.28;;;3.53;;
32850;SDS011;19202;48.992;8.390;2022-11-20T05:32:12;6.55;;;3.63;;
32850;SDS011;19202;48.992;8.390;2022-11-20T05:37:50;5.80;;;3.30;;
32850;SDS011;19202;48.992;8.390;2022-11-20T05:43:28;4.80;;;3.08;;
32850;SDS011;19202;48.992;8.390;2022-11-20T05:49:10;6.85;;;2.75;;
32850;SDS011;19202;48.992;8.390;2022-11-20T05:54:48;4.53;;;2.88;;
32850;SDS011;19202;48.992;8.390;2022-11-20T06:00:26;4.40;;;3.10;;
32850;SDS011;19202;48.992;8.390;2022-11-20T06:06:04;4.38;;;3.00;;
32850;SDS011;19202;48.992;8.390;2022-11-20T06:11:43;7.95;;;3.55;;
32850;SDS011;19202;48.992;8.390;2022-11-20T06:17:22;3.70;;;2.70;;
32850;SDS011;19202;48.992;8.390;2022-11-20T06:23:00;4.30;;;2.90;;
32850;SDS011;19202;48.992;8.390;2022-11-20T06:28:37;4.60;;;2.78;;
32850;SDS011;19202;48.992;8.390;2022-11-20T06:34:16;3.72;;;2.63;;
32850;SDS011;19202;48.992;8.390;2022-11-20T06:39:54;3.20;;;2.70;;
32850;SDS011;19202;48.992;8.390;2022-11-20T06:45:32;4.10;;;2.65;;
32850;SDS011;19202;48.992;8.390;2022-11-20T06:51:10;4.35;;;2.70;;
32850;SDS011;19202;48.992;8.390;2022-11-20T06:56:48;4.40;;;2.63;;
32850;SDS011;19202;48.992;8.390;2022-11-20T07:02:26;6.57;;;2.75;;
32850;SDS011;19202;48.992;8.390;2022-11-20T07:08:04;5.35;;;2.60;;
32850;SDS011;19202;48.992;8.390;2022-11-20T07:13:42;4.43;;;2.53;;
32850;SDS011;19202;48.992;8.390;2022-11-20T07:19:20;5.18;;;3.17;;
32850;SDS011;19202;48.992;8.390;2022-11-20T07:24:58;3.80;;;2.72;;
32850;SDS011;19202;48.992;8.390;2022-11-20T07:30:36;5.60;;;2.42;;
32850;SDS011;19202;48.992;8.390;2022-11-20T07:36:14;4.30;;;2.40;;
32850;SDS011;19202;48.992;8.390;2022-11-20T07:41:52;5.25;;;3.13;;
32850;SDS011;19202;48.992;8.390;2022-11-20T07:47:34;5.55;;;2.88;;
32850;SDS011;19202;48.992;8.390;2022-11-20T07:53:13;7.55;;;3.30;;
32850;SDS011;19202;48.992;8.390;2022-11-20T07:58:51;5.80;;;3.05;;
32850;SDS011;19202;48.992;8.390;2022-11-20T08:04:30;5.28;;;3.00;;
32850;SDS011;19202;48.992;8.390;2022-11-20T08:10:08;3.60;;;2.95;;
32850;SDS011;19202;48.992;8.390;2022-11-20T08:15:49;5.10;;;3.10;;
32850;SDS011;19202;48.992;8.390;2022-11-20T08:21:29;6.38;;;3.13;;
32850;SDS011;19202;48.992;8.390;2022-11-20T08:27:07;7.45;;;4.15;;
32850;SDS011;19202;48.992;8.390;2022-11-20T08:32:45;7.38;;;3.70;;
32850;SDS011;19202;48.992;8.390;2022-11-20T08:38:23;3.75;;;3.00;;
32850;SDS011;19202;48.992;8.390;2022-11-20T08:44:02;3.92;;;2.90;;
32850;SDS011;19202;48.992;8.390;2022-11-20T08:49:42;6.65;;;3.35;;
32850;SDS011;19202;48.992;8.390;2022-11-20T08:55:20;5.45;;;2.88;;
32850;SDS011;19202;48.992;8.390;2022-11-20T09:00:57;6.07;;;3.38;;
32850;SDS011;19202;48.992;8.390;2022-11-20T09:06:36;5.18;;;2.97;;
32850;SDS011;19202;48.992;8.390;2022-11-20T09:12:14;6.35;;;3.10;;
32850;SDS011;19202;48.992;8.390;2022-11-20T09:23:31;9.05;;;3.60;;
32850;SDS011;19202;48.992;8.390;2022-11-20T09:29:11;6.35;;;3.08;;
32850;SDS011;19202;48.992;8.390;2022-11-20T09:34:49;5.38;;;3.10;;
32850;SDS011;19202;48.992;8.390;2022-11-20T09:40:28;5.85;;;2.97;;
32850;SDS011;19202;48.992;8.390;2022-11-20T09:46:17;9.25;;;3.50;;
32850;SDS011;19202;48.992;8.390;2022-11-20T09:52:10;5.63;;;3.33;;
32850;SDS011;19202;48.992;8.390;2022-11-20T09:57:52;4.20;;;3.20;;
32850;SDS011;19202;48.992;8.390;2022-11-20T10:09:25;6.07;;;3.60;;
32850;SDS011;19202;48.992;8.390;2022-11-20T10:15:11;4.82;;;3.28;;
32850;SDS011;19202;48.992;8.390;2022-11-20T10:33:21;10.10;;;3.40;;
32850;SDS011;19202;48.992;8.390;2022-11-20T10:39:22;5.22;;;2.83;;
32850;SDS011;19202;48.992;8.390;2022-11-20T10:57:10;33.55;;;11.38;;
32850;SDS011;19202;48.992;8.390;2022-11-20T11:03:07;7.97;;;3.58;;
32850;SDS011;19202;48.992;8.390;2022-11-20T11:08:59;5.07;;;2.90;;
32850;SDS011;19202;48.992;8.390;2022-11-20T11:14:51;6.75;;;3.17;;
32850;SDS011;19202;48.992;8.390;2022-11-20T11:20:30;3.88;;;2.70;;
32850;SDS011;19202;48.992;8.390;2022-11-20T11:26:19;5.28;;;2.60;;
32850;SDS011;19202;48.992;8.390;2022-11-20T11:32:03;5.20;;;2.80;;
32850;SDS011;19202;48.992;8.390;2022-11-20T11:38:04;4.45;;;2.13;;
32850;SDS011;19202;48.992;8.390;2022-11-20T11:43:54;2.07;;;1.50;;
32850;SDS011;19202;48.992;8.390;2022-11-20T11:56:02;2.35;;;1.75;;
32850;SDS011;19202;48.992;8.390;2022-11-20T12:01:47;3.58;;;1.77;;
32850;SDS011;19202;48.992;8.390;2022-11-20T12:07:51;3.73;;;1.80;;
32850;SDS011;19202;48.992;8.390;2022-11-20T12:19:13;2.65;;;1.60;;
32850;SDS011;19202;48.992;8.390;2022-11-20T12:31:00;3.20;;;1.60;;
32850;SDS011;19202;48.992;8.390;2022-11-20T12:42:50;3.67;;;1.80;;
32850;SDS011;19202;48.992;8.390;2022-11-20T12:55:04;3.65;;;1.95;;
32850;SDS011;19202;48.992;8.390;2022-11-20T13:00:55;4.30;;;1.58;;
32850;SDS011;19202;48.992;8.390;2022-11-20T13:06:38;2.90;;;0.98;;
32850;SDS011;19202;48.992;8.390;2022-11-20T13:12:22;3.03;;;1.58;;
32850;SDS011;19202;48.992;8.390;2022-11-20T13:18:06;5.20;;;1.38;;
32850;SDS011;19202;48.992;8.390;2022-11-20T13:23:47;2.60;;;1.10;;
32850;SDS011;19202;48.992;8.390;2022-11-20T13:29:25;3.50;;;1.27;;
32850;SDS011;19202;48.992;8.390;2022-11-20T13:35:04;5.00;;;1.40;;
32850;SDS011;19202;48.992;8.390;2022-11-20T13:40:58;3.88;;;1.10;;
32850;SDS011;19202;48.992;8.390;2022-11-20T13:46:58;3.27;;;1.30;;
32850;SDS011;19202;48.992;8.390;2022-11-20T14:04:41;2.78;;;1.27;;
32850;SDS011;19202;48.992;8.390;2022-11-20T14:10:28;1.63;;;1.00;;
32850;SDS011;19202;48.992;8.390;2022-11-20T14:16:08;4.45;;;1.52;;
32850;SDS011;19202;48.992;8.390;2022-11-20T14:21:47;3.92;;;1.80;;
32850;SDS011;19202;48.992;8.390;2022-11-20T14:27:26;5.10;;;1.48;;
32850;SDS011;19202;48.992;8.390;2022-11-20T14:33:03;3.45;;;1.38;;
32850;SDS011;19202;48.992;8.390;2022-11-20T14:38:42;1.85;;;1.30;;
32850;SDS011;19202;48.992;8.390;2022-11-20T14:44:21;3.28;;;1.40;;
32850;SDS011;19202;48.992;8.390;2022-11-20T14:50:07;10.70;;;1.80;;
32850;SDS011;19202;48.992;8.390;2022-11-20T14:55:56;4.10;;;1.60;;
32850;SDS011;19202;48.992;8.390;2022-11-20T15:01:36;3.90;;;1.42;;
32850;SDS011;19202;48.992;8.390;2022-11-20T15:07:31;4.03;;;1.33;;
32850;SDS011;19202;48.992;8.390;2022-11-20T15:13:12;2.05;;;1.38;;
32850;SDS011;19202;48.992;8.390;2022-11-20T15:18:53;2.45;;;1.70;;
32850;SDS011;19202;48.992;8.390;2022-11-20T15:24:31;2.65;;;2.08;;
32850;SDS011;19202;48.992;8.390;2022-11-20T15:30:17;2.35;;;1.30;;
32850;SDS011;19202;48.992;8.390;2022-11-20T15:35:57;3.42;;;2.10;;
32850;SDS011;19202;48.992;8.390;2022-11-20T15:41:35;6.50;;;2.90;;
32850;SDS011;19202;48.992;8.390;2022-11-20T15:47:14;6.97;;;3.72;;
32850;SDS011;19202;48.992;8.390;2022-11-20T15:52:52;3.53;;;1.95;;
32850;SDS011;19202;48.992;8.390;2022-11-20T15:58:30;2.97;;;1.58;;
32850;SDS011;19202;48.992;8.390;2022-11-20T16:04:11;2.63;;;1.60;;
32850;SDS011;19202;48.992;8.390;2022-11-20T16:09:53;3.10;;;1.77;;
32850;SDS011;19202;48.992;8.390;2022-11-20T16:15:33;4.53;;;1.83;;
32850;SDS011;19202;48.992;8.390;2022-11-20T16:21:23;2.55;;;1.60;;
32850;SDS011;19202;48.992;8.390;2022-11-20T16:27:10;4.53;;;2.05;;
32850;SDS011;19202;48.992;8.390;2022-11-20T16:32:49;3.70;;;1.60;;
32850;SDS011;19202;48.992;8.390;2022-11-20T16:38:27;2.88;;;1.88;;
32850;SDS011;19202;48.992;8.390;2022-11-20T16:44:07;3.88;;;2.50;;
32850;SDS011;19202;48.992;8.390;2022-11-20T16:49:46;5.35;;;2.55;;
32850;SDS011;19202;48.992;8.390;2022-11-20T16:55:24;3.42;;;1.80;;
32850;SDS011;19202;48.992;8.390;2022-11-20T17:01:06;5.25;;;1.83;;
32850;SDS011;19202;48.992;8.390;2022-11-20T17:06:50;6.20;;;1.40;;
32850;SDS011;19202;48.992;8.390;2022-11-20T17:12:28;3.00;;;1.42;;
32850;SDS011;19202;48.992;8.390;2022-11-20T17:18:06;2.30;;;1.50;;
32850;SDS011;19202;48.992;8.390;2022-11-20T17:23:44;3.20;;;1.90;;
32850;SDS011;19202;48.992;8.390;2022-11-20T17:29:23;5.18;;;1.70;;
32850;SDS011;19202;48.992;8.390;2022-11-20T17:35:01;3.08;;;1.67;;
32850;SDS011;19202;48.992;8.390;2022-11-20T17:40:39;4.25;;;1.70;;
32850;SDS011;19202;48.992;8.390;2022-11-20T17:46:18;3.03;;;1.58;;
32850;SDS011;19202;48.992;8.390;2022-11-20T17:51:58;2.53;;;1.73;;
32850;SDS011;19202;48.992;8.390;2022-11-20T17:57:39;2.92;;;1.92;;
32850;SDS011;19202;48.992;8.390;2022-11-20T18:03:29;3.50;;;1.70;;
32850;SDS011;19202;48.992;8.390;2022-11-20T18:09:07;7.80;;;1.77;;
32850;SDS011;19202;48.992;8.390;2022-11-20T18:14:45;2.80;;;1.85;;
32850;SDS011;19202;48.992;8.390;2022-11-20T18:20:23;4.85;;;1.63;;
32850;SDS011;19202;48.992;8.390;2022-11-20T18:26:01;3.15;;;1.60;;
32850;SDS011;19202;48.992;8.390;2022-11-20T18:31:39;2.38;;;1.60;;
32850;SDS011;19202;48.992;8.390;2022-11-20T18:37:18;3.00;;;1.50;;
32850;SDS011;19202;48.992;8.390;2022-11-20T18:42:56;1.73;;;1.40;;
32850;SDS011;19202;48.992;8.390;2022-11-20T18:48:53;3.78;;;1.90;;
32850;SDS011;19202;48.992;8.390;2022-11-20T18:54:33;4.20;;;1.50;;
32850;SDS011;19202;48.992;8.390;2022-11-20T19:00:12;2.30;;;1.60;;
32850;SDS011;19202;48.992;8.390;2022-11-20T19:05:51;2.22;;;1.58;;
32850;SDS011;19202;48.992;8.390;2022-11-20T19:11:29;4.22;;;1.98;;
32850;SDS011;19202;48.992;8.390;2022-11-20T19:17:07;3.42;;;2.15;;
32850;SDS011;19202;48.992;8.390;2022-11-20T19:22:50;4.97;;;1.63;;
32850;SDS011;19202;48.992;8.390;2022-11-20T19:28:30;3.83;;;1.60;;
32850;SDS011;19202;48.992;8.390;2022-11-20T19:34:09;3.00;;;1.60;;
32850;SDS011;19202;48.992;8.390;2022-11-20T19:39:48;2.13;;;1.40;;
32850;SDS011;19202;48.992;8.390;2022-11-20T19:45:26;2.90;;;1.77;;
32850;SDS011;19202;48.992;8.390;2022-11-20T19:51:11;3.33;;;1.80;;
32850;SDS011;19202;48.992;8.390;2022-11-20T19:57:01;4.65;;;1.77;;
32850;SDS011;19202;48.992;8.390;2022-11-20T20:02:39;2.75;;;1.80;;
32850;SDS011;19202;48.992;8.390;2022-11-20T20:08:17;3.75;;;1.80;;
32850;SDS011;19202;48.992;8.390;2022-11-20T20:13:55;3.65;;;1.60;;
32850;SDS011;19202;48.992;8.390;2022-11-20T20:19:35;3.67;;;1.70;;
32850;SDS011;19202;48.992;8.390;2022-11-20T20:25:13;2.78;;;1.88;;
32850;SDS011;19202;48.992;8.390;2022-11-20T20:30:52;2.20;;;1.60;;
32850;SDS011;19202;48.992;8.390;2022-11-20T20:36:30;2.58;;;1.60;;
32850;SDS011;19202;48.992;8.390;2022-11-20T20:42:08;2.78;;;1.65;;
32850;SDS011;19202;48.992;8.390;2022-11-20T20:47:46;4.00;;;1.83;;
32850;SDS011;19202;48.992;8.390;2022-11-20T20:53:24;5.45;;;1.52;;
32850;SDS011;19202;48.992;8.390;2022-11-20T20:59:02;2.35;;;1.90;;
32850;SDS011;19202;48.992;8.390;2022-11-20T21:04:40;4.85;;;2.25;;
32850;SDS011;19202;48.992;8.390;2022-11-20T21:10:17;10.77;;;3.95;;
32850;SDS011;19202;48.992;8.390;2022-11-20T21:15:56;2.10;;;1.73;;
32850;SDS011;19202;48.992;8.390;2022-11-20T21:21:34;36.65;;;13.10;;
32850;SDS011;19202;48.992;8.390;2022-11-20T21:27:31;3.47;;;1.73;;
32850;SDS011;19202;48.992;8.390;2022-11-20T21:33:09;1.98;;;1.50;;
32850;SDS011;19202;48.992;8.390;2022-11-20T21:38:47;5.35;;;1.73;;
32850;SDS011;19202;48.992;8.390;2022-11-20T21:44:28;3.88;;;1.48;;
32850;SDS011;19202;48.992;8.390;2022-11-20T21:50:06;3.70;;;1.70;;
32850;SDS011;19202;48.992;8.390;2022-11-20T21:55:51;2.85;;;1.58;;
32850;SDS011;19202;48.992;8.390;2022-11-20T22:01:30;1.40;;;1.30;;
32850;SDS011;19202;48.992;8.390;2022-11-20T22:07:08;3.92;;;1.40;;
32850;SDS011;19202;48.992;8.390;2022-11-20T22:12:45;3.38;;;1.73;;
32850;SDS011;19202;48.992;8.390;2022-11-20T22:18:23;2.22;;;1.50;;
32850;SDS011;19202;48.992;8.390;2022-11-20T22:24:01;3.90;;;2.25;;
32850;SDS011;19202;48.992;8.390;2022-11-20T22:29:39;2.47;;;1.10;;
32850;SDS011;19202;48.992;8.390;2022-11-20T22:35:17;1.88;;;1.15;;
32850;SDS011;19202;48.992;8.390;2022-11-20T22:46:53;4.57;;;1.20;;
32850;SDS011;19202;48.992;8.390;2022-11-20T22:52:30;3.80;;;1.30;;
32850;SDS011;19202;48.992;8.390;2022-11-20T22:58:09;4.20;;;1.10;;
32850;SDS011;19202;48.992;8.390;2022-11-20T23:03:47;1.35;;;1.20;;
32850;SDS011;19202;48.992;8.390;2022-11-20T23:09:27;3.13;;;1.30;;
32850;SDS011;19202;48.992;8.390;2022-11-20T23:15:05;1.77;;;1.30;;
32850;SDS011;19202;48.992;8.390;2022-11-20T23:20:43;1.20;;;1.10;;
32850;SDS011;19202;48.992;8.390;2022-11-20T23:26:23;3.80;;;1.38;;
32850;SDS011;19202;48.992;8.390;2022-11-20T23:32:04;1.77;;;1.30;;
32850;SDS011;19202;48.992;8.390;2022-11-20T23:37:42;1.40;;;1.02;;
32850;SDS011;19202;48.992;8.390;2022-11-20T23:43:20;1.67;;;1.30;;
32850;SDS011;19202;48.992;8.390;2022-11-20T23:48:59;1.45;;;1.13;;
32850;SDS011;19202;48.992;8.390;2022-11-20T23:54:36;1.38;;;1.15;;
